Time;durP1;ratioP1;P1;durP2;ratioP2;P2;SDS_P1;SDS_P2;PMS_P1;PMS_P2;Temp;Humidity;BMP_temperature;BMP_pressure;BME280_temperature;BME280_humidity;BME280_pressure;Samples;Min_cycle;Max_cycle;Signal;HPM_P1;HPM_P2
2023/10/10 00:02:04;;;;;;;3.45;1.42;;;;;;;20.10;50.27;102022.22;16120466;19;129694;-44
2023/10/10 00:07:27;;;;;;;1.85;1.20;;;;;;;20.12;50.28;102024.78;16117906;19;129126;-44
2023/10/10 00:12:49;;;;;;;2.08;1.35;;;;;;;20.09;50.43;102025.22;16118941;19;129384;-45
2023/10/10 00:18:11;;;;;;;2.08;1.58;;;;;;;20.08;50.41;102032.72;16119652;19;131195;-43
2023/10/10 00:23:42;;;;;;;2.03;1.27;;;;;;;20.09;50.07;102025.22;16118325;19;132155;-45
2023/10/10 00:29:06;;;;;;;1.95;1.42;;;;;;;20.07;50.16;102035.72;16114297;19;129777;-45
2023/10/10 00:34:28;;;;;;;2.33;1.70;;;;;;;20.07;50.03;102024.59;16117180;19;131471;-46
2023/10/10 00:39:53;;;;;;;2.20;1.38;;;;;;;20.05;50.34;102022.06;16117385;19;130088;-44
2023/10/10 00:45:15;;;;;;;1.95;1.48;;;;;;;20.04;50.27;102005.63;16117091;19;132437;-44
2023/10/10 00:50:39;;;;;;;2.65;1.80;;;;;;;20.04;50.29;102000.06;16115371;19;130706;-45
2023/10/10 00:56:06;;;;;;;2.35;1.30;;;;;;;20.03;50.14;101992.81;16112707;19;131191;-46
2023/10/10 01:01:28;;;;;;;1.80;1.40;;;;;;;20.02;50.31;101993.91;16114679;19;131721;-48
2023/10/10 01:06:51;;;;;;;1.75;1.40;;;;;;;20.02;50.37;101988.34;16114091;19;130947;-45
2023/10/10 01:12:13;;;;;;;3.03;1.20;;;;;;;20.01;50.58;101981.09;16117043;19;129495;-43
2023/10/10 01:17:37;;;;;;;2.30;1.38;;;;;;;19.99;50.34;101981.28;16116350;19;130502;-45
2023/10/10 01:23:04;;;;;;;1.92;1.30;;;;;;;19.98;50.22;101969.31;16113788;19;130646;-44
2023/10/10 01:28:33;;;;;;;;;;;;;;;19.95;50.12;101964.22;16114471;19;131444;-45
2023/10/10 01:34:00;;;;;;;2.58;1.30;;;;;;;19.97;50.37;101962.06;16113646;19;130414;-44
2023/10/10 01:39:34;;;;;;;1.63;1.23;;;;;;;19.97;50.38;101950.94;16110361;19;129763;-44
2023/10/10 01:44:56;;;;;;;2.20;1.30;;;;;;;19.94;50.44;101934.75;16110742;19;130139;-44
2023/10/10 01:50:18;;;;;;;1.27;1.10;;;;;;;19.95;50.65;101947.56;16113523;19;130019;-45
2023/10/10 01:55:41;;;;;;;1.17;1.08;;;;;;;19.94;50.68;101934.75;16112186;19;130062;-44
2023/10/10 02:01:31;;;;;;;1.42;1.30;;;;;;;19.93;50.45;101927.53;16111465;19;130385;-46
2023/10/10 02:06:57;;;;;;;1.55;1.23;;;;;;;19.92;50.57;101928.59;16111902;19;129690;-44
2023/10/10 02:12:22;;;;;;;1.30;1.08;;;;;;;19.91;50.32;101929.69;16113730;19;129849;-44
2023/10/10 02:17:56;;;;;;;2.00;1.47;;;;;;;19.90;50.57;101925.19;16112717;19;130680;-43
2023/10/10 02:28:47;;;;;;;2.03;1.20;;;;;;;19.89;50.31;101917.94;16111361;19;130646;-43
2023/10/10 02:34:11;;;;;;;1.63;1.02;;;;;;;19.89;50.29;101914.31;16110011;19;129502;-43
2023/10/10 02:39:40;;;;;;;1.95;1.17;;;;;;;19.89;50.70;101914.31;16111873;19;131116;-44
2023/10/10 02:45:02;;;;;;;2.17;1.20;;;;;;;19.88;50.54;101909.84;16102794;19;130099;-46
2023/10/10 02:50:40;;;;;;;2.25;1.17;;;;;;;19.88;50.68;101912.63;16108339;19;130740;-45
2023/10/10 02:56:02;;;;;;;2.05;1.20;;;;;;;19.87;50.70;101910.94;16116939;19;129463;-44
2023/10/10 03:07:05;;;;;;;2.30;1.27;;;;;;;19.84;50.38;101907.53;16123357;19;130540;-45
2023/10/10 03:12:29;;;;;;;1.65;1.20;;;;;;;19.84;50.39;101912.22;16121359;19;129527;-44
2023/10/10 03:23:54;;;;;;;1.30;1.05;;;;;;;19.82;50.65;101906.91;16125447;19;129632;-45
2023/10/10 03:34:57;;;;;;;1.30;1.10;;;;;;;19.81;50.83;101910.75;16121379;19;130020;-45
2023/10/10 03:40:37;;;;;;;1.63;1.30;;;;;;;19.80;50.81;101900.72;16122358;19;130032;-46
2023/10/10 05:28:10;;;;;;;1.35;1.00;;;;;;;19.66;50.48;101866.72;16108550;19;132705;-49
2023/10/10 05:33:36;;;;;;;5.72;1.35;;;;;;;19.66;51.05;101863.94;16112560;19;130262;-47
2023/10/10 05:38:58;;;;;;;8.38;1.23;;;;;;;19.73;50.64;101854.69;16111527;19;129797;-44
2023/10/10 05:44:23;;;;;;;4.25;1.23;;;;;;;19.76;50.69;101866.16;16112750;19;130273;-43
2023/10/10 05:49:46;;;;;;;3.63;1.38;;;;;;;19.76;50.46;101865.34;16112789;19;129479;-43
2023/10/10 05:55:11;;;;;;;2.95;1.25;;;;;;;19.76;50.45;101870.88;16110204;19;130603;-42
2023/10/10 06:00:37;;;;;;;2.30;1.08;;;;;;;19.74;50.44;101867.47;16115957;19;131001;-43
2023/10/10 06:06:03;;;;;;;4.43;1.33;;;;;;;19.71;50.44;101857.69;16112264;19;129876;-42
2023/10/10 06:11:27;;;;;;;1.90;1.40;;;;;;;19.73;50.83;101854.69;16109893;19;129557;-43
2023/10/10 06:16:49;;;;;;;3.15;1.38;;;;;;;19.71;50.49;101854.06;16115995;19;129593;-43
2023/10/10 06:22:15;;;;;;;5.57;0.98;;;;;;;19.69;50.65;101854.31;16112366;19;129255;-43
2023/10/10 06:27:40;;;;;;;1.30;0.90;;;;;;;19.68;50.80;101859.03;16110236;19;130873;-43
2023/10/10 06:33:15;;;;;;;3.58;1.30;;;;;;;19.68;50.46;101850.69;16111416;19;129254;-46
2023/10/10 06:38:41;;;;;;;3.80;1.15;;;;;;;19.67;50.48;101846.22;16109716;19;129329;-42
2023/10/10 06:44:13;;;;;;;2.97;1.27;;;;;;;19.66;50.52;101852.84;16106320;19;129589;-42
2023/10/10 06:49:54;;;;;;;2.75;1.23;;;;;;;19.66;50.69;101857.53;16105390;19;130552;-49
2023/10/10 06:55:23;;;;;;;1.52;1.05;;;;;;;19.67;50.47;101846.22;16110685;19;129568;-42
2023/10/10 07:00:45;;;;;;;2.55;1.40;;;;;;;19.71;50.53;101845.72;16108996;19;131091;-42
2023/10/10 07:06:08;;;;;;;4.03;1.60;;;;;;;19.72;50.30;101848.28;16107560;19;130732;-42
2023/10/10 07:11:30;;;;;;;3.45;1.52;;;;;;;19.74;50.50;101845.28;16108253;19;130922;-43
2023/10/10 07:16:56;;;;;;;3.53;1.52;;;;;;;19.77;50.16;101840.09;16107790;19;130443;-44
2023/10/10 07:22:21;;;;;;;2.30;1.50;;;;;;;19.78;50.38;101843.75;16108870;19;129798;-42
2023/10/10 07:27:44;;;;;;;2.40;1.50;;;;;;;19.81;50.22;101840.50;16107553;19;130923;-42
2023/10/10 07:33:12;;;;;;;2.42;1.80;;;;;;;19.84;50.08;101840.03;16105817;19;130080;-46
2023/10/10 07:38:35;;;;;;;4.13;1.80;;;;;;;19.85;50.07;101847.28;16105527;19;130550;-43
2023/10/10 07:43:59;;;;;;;3.95;1.98;;;;;;;19.89;50.02;101851.28;16116052;19;130029;-43
2023/10/10 07:49:21;;;;;;;2.97;1.85;;;;;;;19.96;49.49;101848.44;16121558;19;129895;-43
2023/10/10 07:54:46;;;;;;;3.08;1.80;;;;;;;20.10;49.32;101840.78;16120857;19;129677;-42
2023/10/10 08:00:17;;;;;;;4.63;2.47;;;;;;;20.85;47.80;101839.50;16120473;19;131494;-45
2023/10/10 08:05:42;;;;;;;4.45;2.30;;;;;;;21.70;45.85;101841.22;16124224;19;130518;-45
2023/10/10 08:11:12;;;;;;;4.43;2.38;;;;;;;22.83;43.80;101845.38;16119327;19;130313;-45
2023/10/10 08:16:35;;;;;;;8.70;2.78;;;;;;;23.95;41.75;101844.53;16118923;19;130591;-42
2023/10/10 08:21:57;;;;;;;2.75;2.10;;;;;;;24.72;40.30;101841.75;16121162;19;129585;-42
2023/10/10 08:27:22;;;;;;;4.68;2.40;;;;;;;25.15;39.28;101830.66;16120239;19;131020;-46
2023/10/10 08:32:45;;;;;;;6.18;2.60;;;;;;;24.65;39.39;101825.19;16117826;19;130818;-44
2023/10/10 08:38:07;;;;;;;7.55;2.47;;;;;;;23.60;41.20;101824.28;16116622;19;130984;-45
2023/10/10 08:43:31;;;;;;;3.78;2.50;;;;;;;22.82;42.51;101821.34;16116911;19;131472;-45
2023/10/10 08:48:55;;;;;;;4.97;2.77;;;;;;;22.25;43.27;101828.72;16117869;19;129534;-43
2023/10/10 08:54:17;;;;;;;4.97;2.92;;;;;;;21.86;44.12;101836.81;16119020;19;129477;-41
2023/10/10 08:59:42;;;;;;;4.63;2.65;;;;;;;21.57;44.55;101845.09;16116078;19;129367;-42
2023/10/10 09:05:06;;;;;;;5.95;3.13;;;;;;;21.37;44.99;101847.16;16119464;19;131429;-42
2023/10/10 09:10:28;;;;;;;6.18;2.83;;;;;;;21.21;45.09;101843.16;16116669;19;129766;-43
2023/10/10 09:15:54;;;;;;;6.35;3.53;;;;;;;21.06;45.35;101853.91;16118037;19;129832;-51
2023/10/10 09:21:18;;;;;;;;;;;;;;;20.92;45.84;101841.34;16115552;19;130357;-48
2023/10/10 09:26:42;;;;;;;8.57;3.60;;;;;;;20.87;45.61;101854.03;16118404;19;130390;-50
2023/10/10 09:32:05;;;;;;;7.03;3.97;;;;;;;20.82;45.72;101847.47;16111392;19;131616;-47
2023/10/10 09:37:34;;;;;;;8.43;4.30;;;;;;;20.77;46.29;101855.69;16115732;19;129516;-47
2023/10/10 09:49:17;;;;;;;8.20;4.65;;;;;;;20.67;46.16;101853.47;16113178;19;131207;-47
2023/10/10 09:54:16;;;;;;;9.97;5.13;;;;;;;20.64;46.00;101842.81;16119735;19;129889;-47
2023/10/10 09:59:42;;;;;;;8.50;4.30;;;;;;;20.63;46.48;101843.91;16118886;19;129120;-50
2023/10/10 10:05:13;;;;;;;10.00;4.22;;;;;;;20.62;46.60;101844.97;16115514;19;130172;-49
2023/10/10 10:10:54;;;;;;;9.07;4.53;;;;;;;20.61;46.69;101833.03;16118644;19;130283;-49
2023/10/10 10:16:25;;;;;;;31.83;4.65;;;;;;;20.59;47.10;101829.63;16116324;19;129745;-45
2023/10/10 10:22:07;;;;;;;11.75;4.30;;;;;;;20.57;47.22;101829.84;16112653;19;129503;-44
2023/10/10 10:27:35;;;;;;;8.98;4.10;;;;;;;20.59;47.24;101826.84;16114681;19;130001;-46
2023/10/10 10:33:00;;;;;;;7.95;3.90;;;;;;;20.58;47.18;101831.56;16118852;19;129944;-49
2023/10/10 10:38:28;;;;;;;10.55;3.95;;;;;;;20.58;47.34;101831.56;16115059;19;129815;-48
2023/10/10 10:43:50;;;;;;;8.25;3.70;;;;;;;20.56;47.58;101836.50;16112552;19;130467;-47
2023/10/10 10:49:13;;;;;;;6.38;3.63;;;;;;;20.55;48.12;101820.06;16113113;19;129652;-46
2023/10/10 10:54:35;;;;;;;7.38;3.63;;;;;;;20.54;47.70;101816.44;16111932;19;129679;-49
2023/10/10 10:59:57;;;;;;;7.95;3.17;;;;;;;20.55;48.06;101812.59;16112024;19;131362;-50
2023/10/10 11:05:27;;;;;;;8.63;3.65;;;;;;;20.53;48.21;101814.75;16112330;19;130047;-45
2023/10/10 11:10:49;;;;;;;6.82;3.65;;;;;;;20.49;48.11;101799.63;16108990;19;129412;-48
2023/10/10 11:16:11;;;;;;;4.85;3.28;;;;;;;20.49;48.26;101791.28;16118414;19;129953;-46
2023/10/10 11:21:33;;;;;;;8.20;3.65;;;;;;;20.49;48.67;101796.84;16125102;19;130377;-44
2023/10/10 11:27:13;;;;;;;7.60;3.45;;;;;;;20.46;48.75;101786.19;16129804;19;130605;-45
2023/10/10 11:32:46;;;;;;;5.25;3.38;;;;;;;20.46;49.22;101786.19;16121880;19;131751;-46
2023/10/10 11:38:16;;;;;;;7.18;3.40;;;;;;;20.45;49.17;101785.38;16125406;19;131120;-46
2023/10/10 11:44:01;;;;;;;6.43;3.70;;;;;;;20.46;49.63;101769.53;16118239;19;130610;-44
2023/10/10 11:49:25;;;;;;;6.07;4.03;;;;;;;20.42;49.80;101760.81;16120859;19;129546;-42
2023/10/10 11:54:47;;;;;;;8.82;3.50;;;;;;;20.42;49.67;101757.22;16122642;19;130764;-44
2023/10/10 12:00:11;;;;;;;7.95;3.35;;;;;;;20.42;50.40;101759.97;16123795;19;129336;-42
2023/10/10 12:05:48;;;;;;;6.00;3.35;;;;;;;20.40;50.53;101746.31;16118225;19;129761;-42
2023/10/10 12:11:19;;;;;;;9.52;3.80;;;;;;;20.38;50.09;101740.13;16120536;19;132943;-42
2023/10/10 12:16:42;;;;;;;8.88;3.70;;;;;;;20.37;50.72;101732.06;16120317;19;129907;-43
2023/10/10 12:22:10;;;;;;;5.97;3.88;;;;;;;20.37;50.31;101729.28;16116213;19;130218;-43
2023/10/10 12:27:32;;;;;;;9.50;4.30;;;;;;;20.37;50.40;101726.50;16113933;19;130258;-43
2023/10/10 12:32:56;;;;;;;7.03;3.80;;;;;;;20.37;50.41;101716.22;16119067;19;129485;-42
2023/10/10 12:38:22;;;;;;;7.18;4.38;;;;;;;20.37;50.55;101720.94;16116824;19;130517;-44
2023/10/10 12:43:44;;;;;;;7.35;3.42;;;;;;;20.36;50.80;101710.91;16115892;19;130668;-43
2023/10/10 12:49:11;;;;;;;7.55;3.70;;;;;;;20.35;50.83;101703.66;16116216;19;129668;-44
2023/10/10 12:54:36;;;;;;;6.50;3.50;;;;;;;20.34;50.77;101699.16;16117452;19;130950;-43
2023/10/10 13:00:23;;;;;;;8.88;3.90;;;;;;;20.33;50.66;101697.47;16118975;19;130047;-43
2023/10/10 13:05:40;;;;;;;8.70;4.03;;;;;;;20.32;50.50;101696.66;16117191;19;130301;-47
2023/10/10 13:11:04;;;;;;;4.63;3.25;;;;;;;20.32;50.45;101691.09;16116376;19;130153;-45
2023/10/10 13:16:37;;;;;;;8.27;3.53;;;;;;;20.31;50.67;101691.34;16112878;19;131426;-45
2023/10/10 13:22:02;;;;;;;5.93;3.70;;;;;;;20.30;50.44;101687.69;16114541;19;130081;-43
2023/10/10 13:27:25;;;;;;;7.03;3.70;;;;;;;20.29;50.44;101695.19;16112344;19;131368;-43
2023/10/10 13:32:47;;;;;;;5.43;3.50;;;;;;;20.29;50.84;101686.88;16117493;19;131823;-42
2023/10/10 13:38:10;;;;;;;4.97;3.28;;;;;;;20.28;50.70;101678.75;16113641;19;129597;-42
2023/10/10 13:43:32;;;;;;;5.22;3.42;;;;;;;20.27;50.59;101677.91;16115762;19;130900;-42
2023/10/10 13:48:54;;;;;;;6.03;3.33;;;;;;;20.26;50.88;101676.22;16114480;19;130428;-42
2023/10/10 13:54:19;;;;;;;6.60;3.90;;;;;;;20.26;50.64;101673.44;16111590;19;129584;-43
2023/10/10 13:59:42;;;;;;;6.87;3.83;;;;;;;20.25;50.82;101677.31;16111389;19;130543;-42
2023/10/10 14:05:06;;;;;;;6.15;3.45;;;;;;;20.24;50.99;101672.81;16113451;19;131362;-42
2023/10/10 14:10:34;;;;;;;4.68;3.72;;;;;;;20.24;50.93;101664.50;16112258;19;129628;-42
2023/10/10 14:16:01;;;;;;;5.72;3.45;;;;;;;20.23;50.81;101662.78;16116285;19;129462;-42
2023/10/10 14:21:27;;;;;;;6.90;3.67;;;;;;;20.23;50.74;101648.06;16111646;19;129780;-43
2023/10/10 14:26:51;;;;;;;;;;;;;;;20.19;51.03;101650.47;16116173;19;129985;-42
2023/10/10 14:32:14;;;;;;;5.38;3.78;;;;;;;20.22;50.75;101646.38;16109889;19;129852;-42
2023/10/10 14:38:00;;;;;;;5.80;3.47;;;;;;;20.21;50.76;101639.97;16111403;19;133145;-42
2023/10/10 14:43:23;;;;;;;4.97;3.17;;;;;;;20.21;50.71;101637.19;16108741;19;129624;-42
2023/10/10 14:49:00;;;;;;;5.05;3.28;;;;;;;20.23;50.70;101635.00;16109724;19;129803;-42
2023/10/10 14:54:23;;;;;;;4.97;3.67;;;;;;;20.20;50.87;101629.94;16126749;19;130778;-43
2023/10/10 14:59:45;;;;;;;9.88;4.15;;;;;;;20.20;48.30;101621.59;16120772;19;130879;-44
2023/10/10 15:05:08;;;;;;;9.23;4.20;;;;;;;20.25;45.77;101624.50;16124256;19;130121;-44
2023/10/10 15:10:30;;;;;;;13.80;4.22;;;;;;;20.29;43.82;101611.84;16123807;19;131149;-43
2023/10/10 15:15:52;;;;;;;12.45;4.38;;;;;;;20.37;43.02;101607.00;16129867;19;130119;-46
2023/10/10 15:21:14;;;;;;;11.25;4.25;;;;;;;20.38;43.14;101605.91;16122413;19;130642;-45
2023/10/10 15:26:37;;;;;;;11.35;4.07;;;;;;;20.42;43.47;101607.13;16120380;19;129564;-44
2023/10/10 15:32:03;;;;;;;14.07;3.72;;;;;;;20.44;43.11;101596.59;16122102;19;130585;-44
2023/10/10 15:37:26;;;;;;;12.85;3.90;;;;;;;20.43;43.26;101587.41;16123003;19;129955;-43
2023/10/10 15:42:50;;;;;;;10.48;3.67;;;;;;;20.44;44.05;101591.88;16122878;19;130120;-43
2023/10/10 15:48:21;;;;;;;12.25;4.35;;;;;;;20.45;44.36;101589.94;16120741;19;131061;-43
2023/10/10 15:53:43;;;;;;;53.78;11.02;;;;;;;20.41;43.47;101584.03;16120178;19;130877;-43
2023/10/10 15:59:05;;;;;;;42.88;7.68;;;;;;;20.36;43.90;101583.94;16126069;19;129898;-47
2023/10/10 16:04:28;;;;;;;39.97;8.68;;;;;;;20.32;44.66;101579.06;16118802;19;131011;-45
2023/10/10 16:09:52;;;;;;;36.00;6.75;;;;;;;20.26;44.77;101569.78;16118176;19;131289;-43
2023/10/10 16:15:18;;;;;;;31.60;8.25;;;;;;;20.23;45.37;101565.56;16118789;19;131198;-40
2023/10/10 16:20:52;;;;;;;30.58;7.95;;;;;;;20.21;46.02;101567.72;16117508;19;130827;-42
2023/10/10 16:26:14;;;;;;;35.13;8.63;;;;;;;20.19;46.31;101564.34;16122456;19;129752;-42
2023/10/10 16:31:37;;;;;;;28.45;7.80;;;;;;;20.17;46.38;101569.31;16121495;19;129672;-40
2023/10/10 16:36:59;;;;;;;27.55;7.60;;;;;;;20.15;46.81;101563.16;16117388;19;130107;-43
2023/10/10 16:42:23;;;;;;;32.55;7.82;;;;;;;20.14;46.92;101567.84;16115717;19;129872;-43
2023/10/10 16:47:46;;;;;;;22.45;7.82;;;;;;;20.11;47.16;101551.69;16118457;19;130500;-41
2023/10/10 16:53:11;;;;;;;26.52;7.45;;;;;;;20.10;47.45;101549.13;16113517;19;129631;-42
2023/10/10 16:58:36;;;;;;;24.85;7.00;;;;;;;20.09;47.15;101553.00;16119255;19;131176;-41
2023/10/10 17:04:00;;;;;;;25.70;7.27;;;;;;;20.08;47.42;101542.97;16122441;19;129317;-45
2023/10/10 17:09:23;;;;;;;26.50;7.90;;;;;;;20.07;47.53;101549.59;16115595;19;130435;-41
2023/10/10 17:14:44;;;;;;;25.65;7.43;;;;;;;20.07;47.93;101555.16;16115799;19;129634;-42
2023/10/10 17:20:15;;;;;;;20.40;6.38;;;;;;;20.06;47.61;101553.50;16120018;19;129746;-41
2023/10/10 17:25:40;;;;;;;24.92;7.60;;;;;;;20.05;48.25;101546.25;16114200;19;129575;-41
2023/10/10 17:31:02;;;;;;;29.92;6.47;;;;;;;20.03;47.79;101540.91;16112906;19;129798;-43
2023/10/10 17:36:27;;;;;;;21.83;6.28;;;;;;;20.08;48.26;101543.81;16113941;19;129190;-50
2023/10/10 17:41:49;;;;;;;19.00;5.63;;;;;;;20.13;48.06;101543.94;16114969;19;130676;-52
2023/10/10 17:47:11;;;;;;;16.65;5.20;;;;;;;20.15;47.79;101540.94;16117008;19;129779;-55
2023/10/10 17:52:33;;;;;;;22.02;5.95;;;;;;;20.19;47.95;101536.56;16119712;19;130621;-56
2023/10/10 17:57:55;;;;;;;20.17;5.47;;;;;;;20.22;47.56;101536.09;16118561;19;130124;-61
2023/10/10 18:03:17;;;;;;;15.65;4.47;;;;;;;20.27;47.82;101530.66;16114684;19;131584;-54
2023/10/10 18:08:39;;;;;;;13.23;5.10;;;;;;;20.32;48.01;101529.06;16116077;19;130612;-55
2023/10/10 18:14:02;;;;;;;17.45;5.07;;;;;;;20.35;47.64;101525.81;16114571;19;129640;-53
2023/10/10 18:19:26;;;;;;;13.50;4.57;;;;;;;20.37;47.84;101518.91;16110968;19;130788;-55
2023/10/10 18:24:48;;;;;;;14.65;4.63;;;;;;;20.37;48.39;101534.75;16108880;19;129516;-53
2023/10/10 18:30:14;;;;;;;12.27;4.38;;;;;;;20.33;48.19;101528.84;16106977;19;129865;-55
2023/10/10 18:35:39;;;;;;;12.10;3.85;;;;;;;20.29;48.10;101520.16;16107903;19;130990;-56
2023/10/10 18:41:00;;;;;;;11.80;4.50;;;;;;;20.26;48.18;101523.41;16111553;19;130584;-49
2023/10/10 18:46:24;;;;;;;14.70;4.60;;;;;;;20.24;48.24;101528.34;16105445;19;129405;-54
2023/10/10 18:51:46;;;;;;;12.68;3.90;;;;;;;20.21;48.37;101516.88;16106694;19;129738;-54
2023/10/10 18:57:09;;;;;;;12.98;4.40;;;;;;;20.20;48.54;101518.81;16104323;19;130970;-54
2023/10/10 19:02:31;;;;;;;9.77;4.10;;;;;;;20.18;48.73;101523.78;16105803;19;130198;-52
2023/10/10 19:07:55;;;;;;;13.20;5.00;;;;;;;20.18;49.03;101518.22;16108656;19;131124;-52
2023/10/10 19:13:17;;;;;;;11.30;4.15;;;;;;;20.16;48.85;101514.84;16101411;19;129950;-52
2023/10/10 19:18:39;;;;;;;10.25;3.95;;;;;;;20.16;49.19;101514.84;16111155;19;131094;-54
2023/10/10 19:24:02;;;;;;;10.60;4.07;;;;;;;20.15;49.05;101513.16;16103204;19;129695;-53
2023/10/10 19:29:28;;;;;;;10.93;3.92;;;;;;;20.13;49.15;101510.59;16102435;19;130621;-54
2023/10/10 19:34:50;;;;;;;9.30;3.20;;;;;;;20.14;49.40;101517.00;16106298;19;134608;-37
2023/10/10 19:40:18;;;;;;;14.40;3.95;;;;;;;20.13;49.51;101510.59;16119381;19;130111;-45
2023/10/10 19:45:40;;;;;;;10.25;3.80;;;;;;;20.14;49.75;101508.69;16122275;19;130490;-46
2023/10/10 19:51:05;;;;;;;10.95;3.80;;;;;;;20.14;49.46;101519.78;16121107;19;129543;-48
2023/10/10 19:56:28;;;;;;;17.58;3.88;;;;;;;20.13;49.80;101515.31;16114759;19;130088;-48
2023/10/10 20:01:50;;;;;;;17.27;4.05;;;;;;;20.16;50.05;101511.19;16116506;19;129566;-46
2023/10/10 20:07:13;;;;;;;19.05;3.95;;;;;;;20.18;49.84;101518.22;16122067;19;130334;-47
2023/10/10 20:12:35;;;;;;;15.63;3.47;;;;;;;20.21;50.45;101517.72;16124168;19;130856;-47
2023/10/10 20:17:58;;;;;;;13.18;4.07;;;;;;;20.22;50.30;101513.84;16117642;19;130815;-47
2023/10/10 20:23:20;;;;;;;15.40;4.10;;;;;;;20.24;50.29;101521.97;16117987;19;131132;-47
2023/10/10 20:28:43;;;;;;;8.68;3.50;;;;;;;20.26;50.26;101528.09;16115260;19;129976;-47
2023/10/10 20:34:05;;;;;;;12.15;3.50;;;;;;;20.25;50.69;101538.38;16117637;19;130257;-48
2023/10/10 20:39:27;;;;;;;16.38;4.38;;;;;;;20.27;50.56;101539.00;16116838;19;130451;-48
2023/10/10 20:44:50;;;;;;;16.38;3.88;;;;;;;20.26;50.96;101531.75;16112632;19;130269;-46
2023/10/10 20:50:13;;;;;;;12.30;3.00;;;;;;;20.25;50.73;101541.16;16112735;19;130691;-48
2023/10/10 20:55:36;;;;;;;12.02;3.67;;;;;;;20.23;50.50;101535.00;16116100;19;134452;-49
2023/10/10 21:01:00;;;;;;;12.65;3.40;;;;;;;20.22;50.32;101535.25;16113119;19;129742;-48
2023/10/10 21:06:21;;;;;;;12.95;3.33;;;;;;;20.20;50.53;101529.91;16113794;19;130231;-48
2023/10/10 21:11:43;;;;;;;10.65;3.53;;;;;;;20.19;50.13;101536.56;16114747;19;130993;-47
2023/10/10 21:17:05;;;;;;;16.02;3.45;;;;;;;20.17;50.30;101530.44;16111518;19;130104;-45
2023/10/10 21:22:27;;;;;;;18.05;3.53;;;;;;;20.17;50.63;101538.75;16114182;19;130110;-48
2023/10/10 21:27:54;;;;;;;10.25;3.20;;;;;;;20.13;50.21;101524.47;16111162;19;130121;-47
2023/10/10 21:33:17;;;;;;;10.43;3.50;;;;;;;20.14;50.23;101528.13;16105896;19;131139;-48
2023/10/10 21:38:39;;;;;;;9.65;3.55;;;;;;;20.12;50.30;101530.28;16109250;19;130053;-46
2023/10/10 21:44:02;;;;;;;9.35;3.40;;;;;;;20.11;50.80;101523.03;16114033;19;130062;-49
2023/10/10 21:49:28;;;;;;;7.32;3.08;;;;;;;20.11;50.40;101517.50;16111171;19;129963;-47
2023/10/10 21:54:50;;;;;;;7.25;2.90;;;;;;;20.08;50.63;101518.81;16108679;19;130269;-46
2023/10/10 22:00:15;;;;;;;8.45;2.90;;;;;;;20.08;50.83;101513.28;16110001;19;130510;-47
2023/10/10 22:05:37;;;;;;;7.55;2.90;;;;;;;20.08;50.39;101512.41;16107291;19;131417;-47
2023/10/10 22:11:00;;;;;;;6.15;2.83;;;;;;;20.07;50.60;101505.16;16110018;19;129639;-49
2023/10/10 22:16:24;;;;;;;8.30;2.85;;;;;;;20.07;50.45;101505.16;16109714;19;129404;-49
2023/10/10 22:21:46;;;;;;;8.48;3.03;;;;;;;20.06;50.86;101503.50;16107234;19;130833;-46
2023/10/10 22:27:07;;;;;;;5.50;2.35;;;;;;;20.05;50.80;101508.19;16105876;19;130735;-49
2023/10/10 22:32:29;;;;;;;4.28;2.85;;;;;;;20.06;50.49;101503.50;16106886;19;130616;-50
2023/10/10 22:37:52;;;;;;;4.82;2.38;;;;;;;20.04;50.68;101495.38;16108680;19;132166;-47
2023/10/10 22:43:15;;;;;;;7.35;2.83;;;;;;;20.03;50.86;101490.91;16105527;19;132044;-50
2023/10/10 22:48:37;;;;;;;5.95;2.75;;;;;;;20.03;50.92;101498.41;16102120;19;129895;-50
2023/10/10 22:54:01;;;;;;;5.20;2.10;;;;;;;20.03;50.64;101492.88;16108125;19;129677;-47
2023/10/10 22:59:23;;;;;;;7.93;2.78;;;;;;;20.04;50.84;101500.13;16104978;19;130163;-49
2023/10/10 23:04:45;;;;;;;4.18;2.42;;;;;;;20.03;50.44;101492.88;16101774;19;130051;-48
2023/10/10 23:10:12;;;;;;;5.95;2.50;;;;;;;20.02;50.83;101503.09;16104341;19;129906;-51
2023/10/10 23:15:36;;;;;;;7.50;2.97;;;;;;;20.01;50.87;101495.88;16121218;19;129928;-46
2023/10/10 23:20:59;;;;;;;6.00;2.55;;;;;;;20.01;50.64;101489.47;16117139;19;130755;-48
2023/10/10 23:26:21;;;;;;;5.28;2.45;;;;;;;20.01;50.82;101483.94;16116603;19;129548;-47
2023/10/10 23:31:43;;;;;;;4.38;2.10;;;;;;;20.00;50.82;101477.50;16119471;19;130225;-47
2023/10/10 23:37:07;;;;;;;4.22;2.05;;;;;;;19.99;50.65;101493.34;16120335;19;131095;-48
2023/10/10 23:42:31;;;;;;;4.13;2.38;;;;;;;19.99;50.44;101489.69;16121402;19;129242;-48
2023/10/10 23:47:55;;;;;;;5.13;2.05;;;;;;;19.99;50.42;101493.34;16117556;19;130931;-48
2023/10/10 23:53:21;;;;;;;3.22;2.28;;;;;;;19.97;50.65;101494.66;16116168;19;130424;-45
2023/10/10 23:58:44;;;;;;;4.90;2.33;;;;;;;19.98;50.67;101480.50;16117619;19;130697;-47
